East Sandwich, MA (02537)

1:05 AM EDT on September 23, 2014 (GMT -0400)
WEST BARNSTABLE | Change Station
CLOSE
Current Station
Personal Weather Station
Location: West Barnstable, MA
Elevation: 90 ft
Nearby Weather Stations

Elev 90 ft 41.72 °N, 70.39 °W | Updated 5 seconds ago

Clear
Clear
51.3 °F
Feels Like 51.3 °F
N
1.0
Wind Variable Wind from West
Gusts 3.0 mph

Today
High -- | Low -- °F
--% Chance of Precip.
Yesterday
High -- | Low -- °F
Precip. -- in
6:30 AM 6:37 PM
Waning Crescent, 1% visible
Pressure 30.10 in
Visibility 10.0 miles
Clouds Clear
Dew Point 43 °F
Humidity 73%
Rainfall 0.00 in
Snow Depth Not available.
UV 0 out of 12
Pollen 3.70 out of 12
Air Quality Not available.
Flu Activity Not available.
METAR KFMH 230435Z AUTO 31004KT 10SM CLR 11/04 A3010 RMK AO2

More Conditions Fewer Conditions

Pressure 30.10 in
Visibility 10.0 miles
Clouds Clear
Dew Point 43 °F
Humidity 73%
Rainfall 0.00 in
Snow Depth Not available.
UV 0 out of 12
Pollen 3.70 out of 12
Air Quality Not available.
Flu Activity Not available.
METAR KFMH 230435Z AUTO 31004KT 10SM CLR 11/04 A3010 RMK AO2

More Conditions Fewer Conditions

10-Day Weather Forecast

Almanac

Astronomy

Sep. 23, 2014 Rise Set
Actual Time 6:30 AM EDT 6:37 PM EDT
Civil Twilight 6:02 AM EDT 7:05 PM EDT
Nautical Twilight 5:29 AM EDT 7:37 PM EDT
Astronomical Twilight 4:56 AM EDT 8:10 PM EDT
Moon 5:51 AM EDT 6:14 PM EDT
Length of Visible Light 13h 02m
Length of Day
12h 07m
Tomorrow will be 2m 46s shorter.
Waning Crescent, 1% of the Moon is Illuminated
Today
Waning Crescent
Sep 24
New
Oct 1
First Quarter
Oct 8
Full
Oct 15
Last Quarter

Today's Extremes

State Highs State Lows

Community

WunderPhotos

Upload Photos

1,755,607 photos uploaded!

Nearby

Air Quality

  Air Quality AQ Index Pollutant
Yesterday Good
OZONE
Monday Good
PM2.5
Monday Good
OZONE
Tuesday Good
PM2.5
Tuesday Good
OZONE

Snow Depth

Station Depth Elevation
No new snow has been reported.

Earthquake Activity

City Distance Mag. Time & Date
No recent earthquake activity has been reported nearby.
Minimum magnitude displayed is 2.5.

Coastal Water Temperatures

Place Temperature
Woods Hole, MA 69.1 °F
Nantucket Island, MA 68.0 °F
Boston, MA 63.0 °F
Fall River, MA 68.0 °F

Nearby Weather Stations